createdAt,value
2019-06-07T00:01:31.507Z,2.13
2019-06-07T00:06:47.538Z,1.93
2019-06-07T00:12:03.465Z,2.17
2019-06-07T00:17:20.288Z,2.33
2019-06-07T00:22:36.561Z,2.40
2019-06-07T00:27:52.458Z,2.20
2019-06-07T00:33:11.009Z,2.23
2019-06-07T00:38:25.569Z,3.00
2019-06-07T00:43:41.647Z,2.27
2019-06-07T00:48:57.401Z,2.20
2019-06-07T00:54:14.954Z,2.50
2019-06-07T00:59:30.231Z,2.20
2019-06-07T01:04:45.864Z,2.40
2019-06-07T01:10:01.555Z,2.10
2019-06-07T01:15:22.755Z,2.60
2019-06-07T01:20:36.798Z,2.53
2019-06-07T01:25:52.306Z,2.53
2019-06-07T01:31:08.007Z,2.40
2019-06-07T01:36:27.601Z,2.20
2019-06-07T01:41:40.908Z,2.53
2019-06-07T01:46:56.603Z,2.63
2019-06-07T01:52:12.592Z,2.37
2019-06-07T01:57:44.765Z,2.93
2019-06-07T02:02:45.469Z,2.07
2019-06-07T02:08:01.042Z,2.30
2019-06-07T02:13:17.200Z,2.40
2019-06-07T02:18:34.926Z,2.60
2019-06-07T02:23:51.635Z,2.63
2019-06-07T02:29:07.045Z,2.40
2019-06-07T02:34:24.900Z,2.60
2019-06-07T02:39:41.201Z,2.70
2019-06-07T02:44:57.239Z,2.93
2019-06-07T02:50:13.747Z,2.50
2019-06-07T02:55:36.549Z,2.60
2019-06-07T03:01:09.070Z,2.70
2019-06-07T03:06:07.629Z,2.97
2019-06-07T03:11:28.140Z,3.03
2019-06-07T03:16:49.211Z,2.77
2019-06-07T03:22:06.491Z,2.80
2019-06-07T03:27:35.094Z,2.87
2019-06-07T03:32:47.431Z,2.70
2019-06-07T03:37:58.651Z,2.77
2019-06-07T03:43:14.059Z,2.80
2019-06-07T03:48:30.709Z,2.63
2019-06-07T03:53:47.159Z,2.67
2019-06-07T03:59:02.580Z,2.60
2019-06-07T04:04:18.522Z,2.50
2019-06-07T04:09:37.523Z,3.30
2019-06-07T04:14:52.006Z,2.80
2019-06-07T04:20:08.406Z,2.57
2019-06-07T04:25:24.356Z,3.07
2019-06-07T04:30:44.962Z,2.93
2019-06-07T04:36:01.850Z,2.80
2019-06-07T04:41:21.013Z,2.60
2019-06-07T04:46:40.724Z,3.20
2019-06-07T04:51:56.576Z,3.00
2019-06-07T04:57:12.068Z,2.87
2019-06-07T05:02:27.661Z,3.00
2019-06-07T05:07:46.317Z,3.00
2019-06-07T05:13:00.567Z,3.37
2019-06-07T05:18:16.166Z,3.07
2019-06-07T05:28:48.996Z,3.43
2019-06-07T05:34:05.019Z,3.03
2019-06-07T05:39:20.764Z,3.70
2019-06-07T05:44:36.638Z,3.33
2019-06-07T05:49:53.679Z,3.20
2019-06-07T05:55:09.941Z,3.20
2019-06-07T06:00:25.789Z,3.00
2019-06-07T06:05:45.756Z,3.33
2019-06-07T06:10:58.707Z,2.63
2019-06-07T06:16:15.111Z,2.90
2019-06-07T06:21:30.885Z,3.13
2019-06-07T06:26:54.855Z,3.00
2019-06-07T06:32:41.049Z,2.73
2019-06-07T06:37:25.854Z,2.30
2019-06-07T06:42:42.228Z,2.13
2019-06-07T06:48:01.954Z,1.83
2019-06-07T06:53:17.646Z,2.40
2019-06-07T06:59:18.721Z,2.17
2019-06-07T07:04:10.529Z,2.47
2019-06-07T07:09:14.438Z,2.13
2019-06-07T07:14:30.313Z,2.10
2019-06-07T07:19:49.944Z,2.10
2019-06-07T07:25:05.143Z,2.17
2019-06-07T07:30:38.487Z,2.50
2019-06-07T07:36:15.793Z,1.90
2019-06-07T07:41:15.676Z,2.00
2019-06-07T07:46:30.268Z,1.90
2019-06-07T07:51:49.124Z,2.10
2019-06-07T07:57:04.875Z,2.00
2019-06-07T08:02:20.554Z,1.70
2019-06-07T08:07:37.489Z,1.70
2019-06-07T08:13:18.182Z,1.87
2019-06-07T08:18:10.897Z,2.10
2019-06-07T08:23:26.910Z,2.10
2019-06-07T08:28:42.492Z,2.10
2019-06-07T08:34:00.517Z,1.90
2019-06-07T08:39:15.827Z,2.03
2019-06-07T08:44:31.683Z,1.90
2019-06-07T08:49:47.738Z,2.00
2019-06-07T08:55:05.205Z,1.90
2019-06-07T09:05:41.442Z,2.70
2019-06-07T09:10:59.466Z,2.70
2019-06-07T09:16:15.266Z,2.57
2019-06-07T09:21:30.699Z,2.73
2019-06-07T09:26:46.324Z,3.17
2019-06-07T09:32:09.677Z,3.10
2019-06-07T09:38:03.573Z,3.23
2019-06-07T09:42:38.975Z,2.50
2019-06-07T09:47:54.875Z,2.60
2019-06-07T09:53:21.575Z,3.13
2019-06-07T09:58:51.209Z,2.97
2019-06-07T10:03:45.442Z,3.33
2019-06-07T10:10:04.691Z,3.00
2019-06-07T10:14:20.474Z,3.23
2019-06-07T10:19:36.045Z,3.07
2019-06-07T10:24:51.595Z,3.83
2019-06-07T10:30:08.645Z,3.47
2019-06-07T10:35:24.316Z,3.40
2019-06-07T10:40:39.894Z,3.67
2019-06-07T10:45:55.333Z,3.47
2019-06-07T10:51:14.450Z,3.63
2019-06-07T10:56:28.875Z,3.20
2019-06-07T11:01:44.637Z,3.13
2019-06-07T11:07:00.332Z,3.43
2019-06-07T11:12:16.147Z,3.60
2019-06-07T11:17:31.986Z,3.20
2019-06-07T11:22:47.375Z,3.57
2019-06-07T11:28:04.228Z,3.43
2019-06-07T11:33:19.795Z,3.33
2019-06-07T11:38:35.433Z,3.10
2019-06-07T11:43:51.091Z,3.57
2019-06-07T11:49:08.175Z,3.93
2019-06-07T11:54:24.144Z,3.63
2019-06-07T11:59:39.665Z,3.30
2019-06-07T12:04:55.766Z,3.30
2019-06-07T12:10:12.692Z,3.40
2019-06-07T12:15:28.767Z,3.80
2019-06-07T12:20:44.627Z,3.07
2019-06-07T12:26:00.899Z,3.83
2019-06-07T12:31:17.137Z,3.10
2019-06-07T12:36:32.979Z,2.90
2019-06-07T12:41:48.688Z,2.83
2019-06-07T12:47:04.554Z,3.10
2019-06-07T12:52:22.855Z,2.70
2019-06-07T12:57:39.479Z,3.03
2019-06-07T13:02:55.418Z,2.93
2019-06-07T13:08:11.304Z,2.60
2019-06-07T13:13:28.098Z,2.40
2019-06-07T13:18:44.521Z,2.97
2019-06-07T13:24:01.159Z,2.70
2019-06-07T13:29:18.639Z,2.60
2019-06-07T13:34:34.265Z,2.40
2019-06-07T13:39:49.739Z,2.57
2019-06-07T13:45:05.229Z,2.53
2019-06-07T13:50:21.678Z,2.40
2019-06-07T13:55:37.391Z,2.60
2019-06-07T14:00:53.065Z,2.50
2019-06-07T14:06:08.875Z,2.50
2019-06-07T14:11:25.300Z,2.23
2019-06-07T14:16:41.484Z,2.80
2019-06-07T14:21:56.972Z,2.20
2019-06-07T14:27:12.656Z,2.20
2019-06-07T14:32:28.767Z,2.53
2019-06-07T14:37:44.810Z,2.60
2019-06-07T14:43:01.446Z,2.27
2019-06-07T14:48:17.109Z,2.20
2019-06-07T14:53:33.103Z,2.80
2019-06-07T14:58:49.160Z,2.37
2019-06-07T15:04:05.291Z,2.00
2019-06-07T15:09:21.001Z,2.33
2019-06-07T15:14:37.644Z,2.50
2019-06-07T15:19:53.619Z,2.23
2019-06-07T15:25:10.071Z,2.27
2019-06-07T15:30:27.338Z,2.60
2019-06-07T15:35:43.341Z,2.20
2019-06-07T15:40:59.314Z,2.50
2019-06-07T15:46:14.987Z,2.27
2019-06-07T15:51:30.715Z,2.43
2019-06-07T15:56:46.367Z,2.20
2019-06-07T16:02:02.017Z,2.40
2019-06-07T16:07:17.952Z,2.30
2019-06-07T16:12:34.549Z,2.23
2019-06-07T16:17:50.362Z,2.60
2019-06-07T16:23:06.710Z,2.07
2019-06-07T16:28:22.523Z,2.27
2019-06-07T16:33:38.854Z,1.90
2019-06-07T16:38:57.175Z,2.30
2019-06-07T16:44:12.938Z,2.10
2019-06-07T16:49:28.584Z,2.20
2019-06-07T16:54:54.471Z,2.60
2019-06-07T17:00:11.338Z,1.90
2019-06-07T17:05:27.008Z,2.13
2019-06-07T17:10:42.748Z,1.97
2019-06-07T17:15:58.514Z,1.90
2019-06-07T17:21:13.892Z,2.03
2019-06-07T17:26:30.041Z,2.07
2019-06-07T17:31:46.469Z,1.90
2019-06-07T17:37:02.067Z,2.50
2019-06-07T17:42:17.688Z,2.57
2019-06-07T17:47:32.931Z,2.73
2019-06-07T17:52:50.479Z,2.10
2019-06-07T17:58:06.136Z,1.97
2019-06-07T18:03:22.265Z,1.90
2019-06-07T18:08:38.295Z,2.30
2019-06-07T18:14:08.502Z,2.27
2019-06-07T18:19:11.154Z,2.00
2019-06-07T18:24:26.945Z,2.00
2019-06-07T18:29:42.652Z,1.60
2019-06-07T18:35:00.283Z,1.80
2019-06-07T18:40:16.024Z,1.47
2019-06-07T18:45:32.178Z,1.50
2019-06-07T18:50:48.612Z,1.33
2019-06-07T18:56:05.144Z,1.10
2019-06-07T19:01:21.522Z,1.17
2019-06-07T19:06:37.294Z,0.73
2019-06-07T19:11:53.139Z,1.10
2019-06-07T19:17:08.971Z,1.63
2019-06-07T19:22:24.979Z,0.93
2019-06-07T19:27:40.792Z,0.97
2019-06-07T19:32:57.331Z,0.50
2019-06-07T19:38:16.800Z,0.70
2019-06-07T19:43:31.571Z,0.60
2019-06-07T19:48:48.049Z,0.90
2019-06-07T19:54:04.080Z,0.60
2019-06-07T19:59:19.903Z,0.50
2019-06-07T20:04:36.280Z,1.03
2019-06-07T20:09:52.159Z,0.50
2019-06-07T20:15:27.227Z,0.50
2019-06-07T20:20:26.092Z,0.53
2019-06-07T20:25:41.932Z,0.50
2019-06-07T20:30:59.613Z,0.50
2019-06-07T20:36:15.602Z,0.40
2019-06-07T20:41:31.574Z,0.70
2019-06-07T20:46:47.464Z,0.40
2019-06-07T20:52:04.818Z,0.50
2019-06-07T20:57:20.943Z,0.40
2019-06-07T21:02:36.799Z,0.60
2019-06-07T21:07:52.764Z,0.40
2019-06-07T21:13:08.323Z,0.80
2019-06-07T21:18:24.285Z,0.63
2019-06-07T21:23:39.863Z,0.33
2019-06-07T21:28:55.834Z,0.60
2019-06-07T21:34:14.001Z,0.60
2019-06-07T21:39:29.024Z,0.60
2019-06-07T21:44:44.758Z,0.50
2019-06-07T21:50:00.564Z,0.80
2019-06-07T21:55:17.015Z,0.87
2019-06-07T22:01:22.698Z,0.70
2019-06-07T22:06:38.582Z,0.50
2019-06-07T22:11:54.563Z,0.83
2019-06-07T22:17:10.569Z,0.60
2019-06-07T22:22:26.237Z,0.73
2019-06-07T22:27:41.937Z,0.63
2019-06-07T22:32:59.309Z,0.73
2019-06-07T22:38:15.272Z,0.60
2019-06-07T22:43:30.883Z,0.70
2019-06-07T22:48:47.004Z,0.70
2019-06-07T22:54:03.706Z,0.67
2019-06-07T22:59:20.651Z,0.50
2019-06-07T23:04:36.422Z,0.53
2019-06-07T23:09:52.272Z,0.70
2019-06-07T23:15:09.363Z,1.40
2019-06-07T23:20:28.828Z,0.60
2019-06-07T23:25:44.387Z,0.53
2019-06-07T23:31:00.255Z,0.67
2019-06-07T23:36:17.243Z,0.60
2019-06-07T23:41:33.180Z,0.57
2019-06-07T23:46:49.117Z,0.50
2019-06-07T23:52:04.819Z,0.90
2019-06-07T23:57:21.021Z,0.60
